Aérodrome :
LOGIN :

S'inscrire | Disclaimer

   EN    FR    IT 

 










Légende :    VFR   VFR Marginal   IFR   IFR Intensif   IFR Très Intensif
Visi : 
Plafond : 
>= 8 km
>= 3000ft
5 à 8 km
1000 à 3000 ft
1500m à 5 km
500 à 1000 ft
800 à 1500m
200 à 500 ft
< 800m
< 200 ft
Symboles :   Orages  Brouillard  Fortes neiges  Fortes précipitations  Vent > 20 kt
SIGMETs :   Divers  Orages  Givrage  Turbulence  Onde Orograph.  Cendres Volcan.






- Altitude de l'aérodrome : 119 ft
- Code IATA : WAT


EIWF - Waterford

DERNIER METAR :
  • 041430Z 25011KT 210V270 9999 SCT004 BKN023 16/15 Q1007

METARs EXPIRÉS :
  • 041400Z 25013KT 210V280 9999 FEW004 BKN021 16/15 Q1007
  • 041330Z 25010KT 210V280 9999 FEW004 BKN020 16/15 Q1007
  • 041300Z 25010KT 210V290 9999 SCT004 BKN020 15/15 Q1007 R21/0/////
  • 041230Z 24012KT 220V280 9999 FEW005 BKN019 15/14 Q1007 R21/1/////
  • 041200Z 25011KT 220V280 6000 FEW003 BKN012 15/15 Q1007 R21/1/////

TAF TAF EIWF
Valide du 04 à 15h jusqu'au 05 à 00h UTC


041400Z 0415/0424 23012KT 9999 SCT007 BKN020
TEMPO 0415/0423 3500 -RADZ BKN007
BECMG 0416/0418 23016G26KT
BECMG 0419/0421 24021G35KT
ATIS : +353 51 877 000



MET'MAP, la Météo Aéronautique d'un coup d'oeil ! - Copyright ORBIFLY Décembre 2007 - Disclaimer

ORBIFLY MET'MAP TEAM :

Programmation & Développement : Alexandra Zaïnal
Sur une idée originale de : Baudouin d'Aumeries
Assistance à la programmation : Marc-Olivier Méhu
Soutien technique & logistique : Manuel Goepfert

Contact : metmap@orbifly.com




SOURCES & CREDITS :

   NOAA